Terminal Aerodrome Forecast
Issued by NWS Cleveland, OH

Home | Current Version | Previous Version | Text Only | Print | Product List | Glossary On
Versions: 1 2 3 4 5 6 7 8 9 10 11 12 13 14
377
FTUS41 KCLE 171739
TAFERI
TAF
KERI 171739Z 1718/1818 18014G22KT P6SM SCT060 BKN100
     FM172100 19010KT P6SM -SHRA VCTS SCT030 BKN050CB
      TEMPO 1722/1801 2SM TSRA OVC020CB
     FM180100 18012KT P6SM VCSH SCT040 BKN060
     FM180900 21011KT P6SM BKN030
     FM181600 23012G22KT P6SM BKN040=

USA.gov is the U.S. government's official web portal to all federal, state and local government web resources and services.